Time;durP1;ratioP1;P1;durP2;ratioP2;P2;SDS_P1;SDS_P2;PMS_P1;PMS_P2;Temp;Humidity;BMP_temperature;BMP_pressure;BME280_temperature;BME280_humidity;BME280_pressure;Samples;Min_cycle;Max_cycle;Signal;HPM_P1;HPM_P2
2023/08/21 00:01:23;;;;;;;13.83;11.28;;;;;;;22.49;100.00;100710.23;1443678;90;21445;-85
2023/08/21 00:03:49;;;;;;;14.35;12.95;;;;;;;22.46;100.00;100709.33;1441469;90;21422;-87
2023/08/21 00:06:16;;;;;;;15.10;13.35;;;;;;;22.44;100.00;100699.80;1443461;90;21570;-86
2023/08/21 00:08:42;;;;;;;15.25;13.03;;;;;;;22.42;100.00;100700.56;1444428;90;22090;-86
2023/08/21 00:11:08;;;;;;;14.43;12.82;;;;;;;22.41;100.00;100699.75;1421307;90;22324;-85
2023/08/21 00:13:35;;;;;;;13.32;12.07;;;;;;;22.40;100.00;100691.33;1445845;90;21600;-87
2023/08/21 00:16:01;;;;;;;19.17;12.28;;;;;;;22.39;100.00;100700.48;1441802;90;21606;-86
2023/08/21 00:18:27;;;;;;;15.98;13.20;;;;;;;22.36;100.00;100698.22;1445585;90;22346;-86
2023/08/21 00:20:53;;;;;;;14.63;12.93;;;;;;;22.35;100.00;100703.29;1449160;90;23084;-86
2023/08/21 00:23:20;;;;;;;13.35;11.95;;;;;;;22.35;100.00;100695.20;1428683;90;21451;-86
2023/08/21 00:25:48;;;;;;;13.75;11.28;;;;;;;22.37;100.00;100697.69;1444174;90;21474;-87
2023/08/21 00:28:14;;;;;;;13.68;11.73;;;;;;;22.37;100.00;100699.86;1428531;90;22317;-85
2023/08/21 00:30:42;;;;;;;14.78;13.28;;;;;;;22.36;100.00;100702.27;1435292;90;21392;-83
2023/08/21 00:33:09;;;;;;;18.48;14.55;;;;;;;22.29;100.00;100704.16;1445551;90;21622;-83
2023/08/21 00:35:35;;;;;;;14.30;12.93;;;;;;;22.20;100.00;100709.52;1442690;90;21474;-83
2023/08/21 00:38:02;;;;;;;16.80;13.65;;;;;;;22.11;100.00;100706.75;1443618;90;21533;-84
2023/08/21 00:40:30;;;;;;;13.90;12.60;;;;;;;22.07;100.00;100708.53;1425128;90;21611;-86
2023/08/21 00:42:56;;;;;;;15.13;12.82;;;;;;;22.05;100.00;100707.92;1447204;90;21510;-86
2023/08/21 00:45:23;;;;;;;15.15;13.62;;;;;;;22.02;100.00;100707.00;1414965;90;21651;-84
2023/08/21 00:47:50;;;;;;;16.57;12.07;;;;;;;22.00;100.00;100710.42;1451203;89;21511;-84
2023/08/21 00:50:16;;;;;;;14.70;13.28;;;;;;;22.01;100.00;100708.06;1451820;89;22368;-84
2023/08/21 00:52:50;;;;;;;15.53;12.40;;;;;;;22.01;100.00;100709.41;1448054;89;21592;-84
2023/08/21 00:55:14;;;;;;;17.17;13.48;;;;;;;22.04;100.00;100706.28;1452339;89;21429;-85
2023/08/21 00:57:41;;;;;;;14.95;13.45;;;;;;;22.04;100.00;100706.28;1446146;89;22545;-85
2023/08/21 01:00:12;;;;;;;15.63;13.43;;;;;;;22.05;100.00;100713.31;1449756;89;21481;-84
2023/08/21 01:02:38;;;;;;;13.48;12.15;;;;;;;22.05;100.00;100711.14;1448889;89;21443;-85
2023/08/21 01:05:05;;;;;;;19.55;12.70;;;;;;;22.05;100.00;100705.75;1454006;89;21620;-85
2023/08/21 01:07:35;;;;;;;18.95;12.85;;;;;;;22.08;100.00;100711.53;1450227;89;21488;-85
2023/08/21 01:10:16;;;;;;;13.08;11.78;;;;;;;22.11;100.00;100720.23;1438851;90;22617;-85
2023/08/21 01:12:53;;;;;;;15.10;12.93;;;;;;;22.09;100.00;100709.13;1445931;89;22412;-85
2023/08/21 01:15:19;;;;;;;16.05;14.43;;;;;;;22.07;100.00;100717.97;1452441;90;22361;-83
2023/08/21 01:17:47;;;;;;;16.20;14.60;;;;;;;22.03;100.00;100731.55;1444373;90;22515;-83
2023/08/21 01:20:16;;;;;;;14.07;12.68;;;;;;;21.98;100.00;100723.31;1444891;89;21658;-84
2023/08/21 01:22:46;;;;;;;15.78;13.28;;;;;;;21.94;100.00;100725.82;1445040;89;21628;-83
2023/08/21 01:25:12;;;;;;;17.27;13.65;;;;;;;21.93;100.00;100725.82;1455285;89;21522;-83
2023/08/21 01:27:44;;;;;;;14.28;12.93;;;;;;;21.91;100.00;100727.89;1444538;89;21621;-84
2023/08/21 01:30:11;;;;;;;16.45;12.95;;;;;;;21.90;100.00;100728.95;1448645;89;21610;-83
2023/08/21 01:33:05;;;;;;;15.32;12.45;;;;;;;21.87;100.00;100717.25;1467369;88;21957;-83
2023/08/21 01:35:35;;;;;;;15.38;13.20;;;;;;;21.93;100.00;100726.34;1479788;87;22380;-84
2023/08/21 01:38:03;;;;;;;13.30;12.00;;;;;;;21.95;100.00;100728.28;1473404;87;21426;-83
2023/08/21 01:40:30;;;;;;;14.18;12.78;;;;;;;21.97;100.00;100722.98;1481460;88;21655;-82
2023/08/21 01:42:56;;;;;;;14.73;13.05;;;;;;;21.97;100.00;100722.98;1470707;87;22359;-84
2023/08/21 01:45:23;;;;;;;16.85;11.90;;;;;;;21.97;100.00;100724.86;1435049;88;21442;-85
2023/08/21 01:47:49;;;;;;;16.25;12.85;;;;;;;22.01;100.00;100726.07;1473987;87;22594;-85
2023/08/21 01:50:16;;;;;;;15.25;13.65;;;;;;;21.99;100.00;100731.69;1481128;87;21420;-86
2023/08/21 01:52:43;;;;;;;15.30;12.82;;;;;;;21.98;100.00;100728.70;1471079;88;22060;-86
2023/08/21 01:55:10;;;;;;;17.60;13.28;;;;;;;22.00;100.00;100723.91;1466093;88;21545;-87
2023/08/21 01:57:36;;;;;;;15.38;13.90;;;;;;;21.99;100.00;100722.78;1472366;88;21397;-86
2023/08/21 02:00:04;;;;;;;15.28;13.28;;;;;;;21.94;100.00;100728.81;1477367;87;21456;-86
2023/08/21 02:02:31;;;;;;;15.20;13.03;;;;;;;21.92;100.00;100718.89;1479768;87;21457;-84
2023/08/21 02:04:57;;;;;;;15.50;13.93;;;;;;;21.88;100.00;100718.89;1478546;87;21657;-86
2023/08/21 02:07:24;;;;;;;14.13;12.55;;;;;;;21.90;100.00;100730.30;1472900;87;21934;-86
2023/08/21 02:09:50;;;;;;;19.50;14.35;;;;;;;21.86;100.00;100731.74;1472493;87;21479;-87
2023/08/21 02:12:16;;;;;;;18.35;13.85;;;;;;;21.86;100.00;100731.74;1475929;87;21442;-86
2023/08/21 02:14:42;;;;;;;13.90;12.47;;;;;;;21.83;100.00;100733.00;1478458;88;22543;-86
2023/08/21 02:17:09;;;;;;;14.65;13.25;;;;;;;21.77;100.00;100722.27;1475486;87;21412;-86
2023/08/21 02:19:35;;;;;;;13.78;12.45;;;;;;;21.82;100.00;100738.09;1470402;87;21427;-86
2023/08/21 02:22:01;;;;;;;13.80;12.18;;;;;;;21.81;100.00;100730.23;1464331;88;21539;-86
2023/08/21 02:24:27;;;;;;;14.07;12.78;;;;;;;21.77;100.00;100731.69;1469228;88;21494;-84
2023/08/21 02:26:54;;;;;;;14.53;13.00;;;;;;;21.75;100.00;100735.11;1478699;87;21479;-83
2023/08/21 02:29:21;;;;;;;18.05;12.85;;;;;;;21.70;100.00;100737.11;1475891;87;21567;-86
2023/08/21 02:31:48;;;;;;;16.85;13.55;;;;;;;21.71;100.00;100742.80;1478051;87;21649;-83
2023/08/21 02:34:14;;;;;;;14.07;12.58;;;;;;;21.69;100.00;100740.83;1470278;88;21501;-84
2023/08/21 02:36:40;;;;;;;14.35;12.98;;;;;;;21.56;100.00;100720.17;1474859;87;21441;-83
2023/08/21 02:39:06;;;;;;;14.80;13.30;;;;;;;21.56;100.00;100720.17;1464082;88;21457;-82
2023/08/21 02:41:33;;;;;;;12.90;11.63;;;;;;;21.65;100.00;100744.17;1474971;87;21598;-85
2023/08/21 02:43:59;;;;;;;15.68;14.18;;;;;;;21.62;100.00;100732.78;1480820;88;21450;-87
2023/08/21 02:46:27;;;;;;;20.20;13.18;;;;;;;21.59;100.00;100734.55;1470841;88;21470;-86
2023/08/21 02:48:53;;;;;;;16.42;11.93;;;;;;;21.60;100.00;100738.89;1470121;88;21441;-86
2023/08/21 02:51:19;;;;;;;13.80;12.40;;;;;;;21.57;100.00;100742.53;1436981;89;21627;-82
2023/08/21 02:53:45;;;;;;;16.27;13.15;;;;;;;21.54;100.00;100737.05;1458747;89;21486;-81
2023/08/21 02:56:11;;;;;;;15.50;13.70;;;;;;;21.53;100.00;100734.59;1417966;90;21612;-84
2023/08/21 02:58:38;;;;;;;17.07;14.90;;;;;;;21.40;100.00;100716.59;1435702;90;21618;-84
2023/08/21 03:01:04;;;;;;;16.15;14.65;;;;;;;21.40;100.00;100727.36;1445119;90;21368;-83
2023/08/21 03:03:32;;;;;;;16.10;13.10;;;;;;;21.40;100.00;100736.78;1448492;90;22491;-86
2023/08/21 03:05:58;;;;;;;15.95;14.43;;;;;;;21.35;100.00;100727.98;1447182;90;21435;-84
2023/08/21 03:08:25;;;;;;;15.20;13.62;;;;;;;21.35;100.00;100727.98;1451952;90;21619;-85
2023/08/21 03:10:51;;;;;;;14.75;13.15;;;;;;;21.36;100.00;100732.84;1459273;90;21449;-83
2023/08/21 03:13:17;;;;;;;14.83;13.25;;;;;;;21.36;100.00;100732.84;1435325;90;21471;-84
2023/08/21 03:15:44;;;;;;;15.08;12.75;;;;;;;21.24;100.00;100721.08;1446625;90;21384;-84
2023/08/21 03:18:11;;;;;;;19.42;13.22;;;;;;;21.24;100.00;100721.08;1450415;90;21612;-85
2023/08/21 03:20:37;;;;;;;19.85;15.23;;;;;;;21.30;100.00;100731.81;1447884;90;21493;-84
2023/08/21 03:23:03;;;;;;;16.50;14.80;;;;;;;21.28;100.00;100743.83;1453552;90;21425;-86
2023/08/21 03:25:30;;;;;;;16.27;14.58;;;;;;;21.17;100.00;100744.77;1456366;90;22322;-87
2023/08/21 03:27:56;;;;;;;16.25;14.58;;;;;;;21.10;100.00;100742.62;1459742;90;21579;-84
2023/08/21 03:30:22;;;;;;;16.32;13.95;;;;;;;21.05;100.00;100745.10;1438593;90;21531;-83
2023/08/21 03:32:48;;;;;;;21.07;14.87;;;;;;;21.04;100.00;100748.84;1453545;90;21526;-82
2023/08/21 03:35:15;;;;;;;15.23;13.48;;;;;;;21.03;100.00;100752.58;1433904;90;21442;-83
2023/08/21 03:37:41;;;;;;;15.35;13.75;;;;;;;21.03;100.00;100750.38;1452179;90;21619;-84
2023/08/21 03:40:08;;;;;;;15.03;13.62;;;;;;;20.99;100.00;100748.63;1447741;90;22322;-83
2023/08/21 03:42:35;;;;;;;18.10;15.05;;;;;;;20.95;100.00;100744.72;1456855;88;21750;-83
2023/08/21 03:45:04;;;;;;;14.75;13.38;;;;;;;20.92;100.00;100748.64;1430186;90;22619;-83
2023/08/21 03:47:31;;;;;;;20.10;16.43;;;;;;;20.89;100.00;100749.59;1443162;89;21465;-84
2023/08/21 03:49:57;;;;;;;18.48;15.05;;;;;;;20.89;100.00;100750.93;1456557;89;22309;-83
2023/08/21 03:52:23;;;;;;;17.60;15.10;;;;;;;20.89;100.00;100753.62;1424105;90;22441;-83
2023/08/21 03:54:50;;;;;;;16.52;14.73;;;;;;;20.91;100.00;100744.80;1415562;90;21502;-83
2023/08/21 03:57:16;;;;;;;15.98;14.30;;;;;;;20.94;100.00;100740.34;1445670;90;22248;-84
2023/08/21 03:59:42;;;;;;;18.48;14.70;;;;;;;20.95;100.00;100736.64;1431800;90;21697;-84
2023/08/21 04:02:09;;;;;;;19.95;14.53;;;;;;;20.95;100.00;100739.34;1454670;90;21450;-83
2023/08/21 04:04:35;;;;;;;17.55;14.45;;;;;;;20.98;100.00;100740.27;1452396;90;21511;-84
2023/08/21 04:07:01;;;;;;;21.62;16.07;;;;;;;20.95;100.00;100744.72;1435919;90;22301;-83
2023/08/21 04:09:28;;;;;;;17.07;15.38;;;;;;;20.91;100.00;100740.24;1449059;89;22476;-83
2023/08/21 04:11:54;;;;;;;17.87;14.78;;;;;;;20.89;100.00;100735.61;1431152;90;22523;-83
2023/08/21 04:14:20;;;;;;;18.32;14.47;;;;;;;20.90;100.00;100737.25;1446733;89;22338;-83
2023/08/21 04:16:46;;;;;;;17.85;15.55;;;;;;;20.93;100.00;100740.05;1454353;89;21606;-85
2023/08/21 04:19:13;;;;;;;17.55;14.33;;;;;;;20.96;100.00;100740.98;1438447;90;21510;-86
2023/08/21 04:21:39;;;;;;;28.27;14.60;;;;;;;20.97;100.00;100743.97;1438260;90;21549;-86
2023/08/21 04:24:05;;;;;;;18.15;13.55;;;;;;;20.96;100.00;100746.36;1435164;91;22287;-85
2023/08/21 04:26:31;;;;;;;16.10;13.50;;;;;;;20.95;100.00;100737.98;1439504;90;21466;-87
2023/08/21 04:28:58;;;;;;;17.20;12.58;;;;;;;21.05;100.00;100745.10;1398688;91;21614;-83
2023/08/21 04:31:24;;;;;;;14.45;12.15;;;;;;;21.10;100.00;100741.27;1438273;89;22345;-83
2023/08/21 04:33:50;;;;;;;14.78;13.38;;;;;;;21.06;100.00;100731.98;1429048;90;22530;-81
2023/08/21 04:36:17;;;;;;;16.62;14.30;;;;;;;21.06;100.00;100731.98;1439445;89;22493;-83
2023/08/21 04:38:44;;;;;;;23.77;15.15;;;;;;;21.10;100.00;100739.93;1434268;89;21510;-84
2023/08/21 04:41:10;;;;;;;16.55;14.80;;;;;;;21.11;100.00;100740.23;1439769;89;22343;-82
2023/08/21 04:43:36;;;;;;;18.35;14.20;;;;;;;21.15;100.00;100736.09;1444239;90;21592;-87
2023/08/21 04:46:05;;;;;;;15.72;14.10;;;;;;;21.19;100.00;100741.87;1441417;90;21710;-88
2023/08/21 04:48:31;;;;;;;17.55;13.75;;;;;;;21.26;100.00;100745.89;1445703;90;21377;-88
2023/08/21 04:50:58;;;;;;;19.77;13.68;;;;;;;21.36;100.00;100738.23;1452167;89;21595;-89
2023/08/21 04:53:24;;;;;;;16.10;12.70;;;;;;;21.46;100.00;100738.63;1432870;90;21398;-88
2023/08/21 04:55:51;;;;;;;15.53;12.75;;;;;;;21.56;100.00;100742.24;1444963;89;21539;-89
2023/08/21 04:58:17;;;;;;;16.23;13.58;;;;;;;21.65;100.00;100748.22;1440818;89;21422;-89
2023/08/21 05:00:45;;;;;;;21.02;13.35;;;;;;;21.71;100.00;100748.19;1441294;90;21517;-88
2023/08/21 05:03:12;;;;;;;20.50;14.18;;;;;;;21.79;100.00;100750.64;1444963;89;21458;-89
2023/08/21 05:05:38;;;;;;;22.27;14.40;;;;;;;21.90;100.00;100755.89;1441732;89;21642;-88
2023/08/21 05:08:06;;;;;;;17.52;13.88;;;;;;;21.97;100.00;100749.94;1449642;90;21429;-88
2023/08/21 05:10:32;;;;;;;15.90;14.25;;;;;;;22.07;100.00;100757.05;1452715;89;21614;-89
2023/08/21 05:12:59;;;;;;;14.80;13.35;;;;;;;22.17;100.00;100764.69;1445752;89;21451;-87
2023/08/21 05:15:25;;;;;;;14.70;13.30;;;;;;;22.23;100.00;100768.39;1442322;89;21627;-90
2023/08/21 05:17:51;;;;;;;19.12;13.30;;;;;;;22.26;100.00;100766.08;1445330;90;21459;-89
2023/08/21 05:20:18;;;;;;;15.15;13.43;;;;;;;22.29;100.00;100766.17;1442458;90;21703;-87
2023/08/21 05:22:44;;;;;;;13.68;12.37;;;;;;;22.35;100.00;100774.74;1442005;90;21480;-84
2023/08/21 05:25:11;;;;;;;16.32;13.68;;;;;;;22.40;100.00;100774.10;1450359;89;21444;-84
2023/08/21 05:27:37;;;;;;;19.10;15.50;;;;;;;22.42;100.00;100772.84;1444220;90;21385;-86
2023/08/21 05:30:04;;;;;;;14.80;13.30;;;;;;;22.46;100.00;100776.75;1446838;89;21681;-86
2023/08/21 05:32:31;;;;;;;15.25;12.80;;;;;;;22.51;100.00;100771.53;1446760;89;21435;-86
2023/08/21 05:34:57;;;;;;;18.65;13.58;;;;;;;22.62;100.00;100773.24;1451070;89;21451;-88
2023/08/21 05:37:23;;;;;;;17.48;13.50;;;;;;;22.69;100.00;100775.35;1449978;90;21628;-88
2023/08/21 05:39:49;;;;;;;14.70;12.78;;;;;;;22.73;100.00;100769.31;1446593;90;21642;-87
2023/08/21 05:42:16;;;;;;;16.12;12.78;;;;;;;22.84;100.00;100770.98;1438687;90;21516;-88
2023/08/21 05:44:42;;;;;;;13.62;12.28;;;;;;;22.90;100.00;100769.59;1449839;88;21548;-88
2023/08/21 05:47:08;;;;;;;14.58;12.63;;;;;;;22.98;100.00;100778.77;1449627;90;21442;-89
2023/08/21 05:49:35;;;;;;;13.03;11.73;;;;;;;23.11;100.00;100774.32;1448002;89;21420;-84
2023/08/21 05:52:02;;;;;;;14.95;12.15;;;;;;;23.26;100.00;100782.89;1447448;89;22501;-85
2023/08/21 05:54:30;;;;;;;17.45;12.18;;;;;;;23.37;100.00;100780.80;1445248;89;22456;-84
2023/08/21 05:56:57;;;;;;;13.10;11.73;;;;;;;23.48;100.00;100782.45;1452103;90;21496;-83
2023/08/21 05:59:35;;;;;;;12.78;11.57;;;;;;;23.54;100.00;100784.28;1451095;89;21524;-84
2023/08/21 06:02:01;;;;;;;12.40;11.10;;;;;;;23.60;100.00;100787.42;1453681;90;21443;-85
2023/08/21 06:04:28;;;;;;;12.63;11.45;;;;;;;23.72;100.00;100782.13;1450654;89;21650;-84
2023/08/21 06:06:54;;;;;;;12.50;11.40;;;;;;;23.80;100.00;100786.70;1445512;89;21495;-85
2023/08/21 06:09:20;;;;;;;17.20;12.18;;;;;;;23.91;100.00;100788.33;1445191;90;21443;-85
2023/08/21 06:11:47;;;;;;;16.02;12.10;;;;;;;23.95;100.00;100789.55;1451090;89;22479;-86
2023/08/21 06:14:13;;;;;;;13.45;12.03;;;;;;;24.06;100.00;100794.19;1451523;89;22435;-86
2023/08/21 06:16:40;;;;;;;12.75;11.50;;;;;;;24.18;100.00;100792.35;1447837;89;21643;-86
2023/08/21 06:19:06;;;;;;;15.20;11.83;;;;;;;24.31;100.00;100792.18;1452825;89;21434;-86
2023/08/21 06:21:32;;;;;;;15.65;11.95;;;;;;;24.46;100.00;100799.09;1426033;90;22281;-83
2023/08/21 06:23:58;;;;;;;14.58;11.20;;;;;;;24.54;100.00;100797.38;1430671;90;22344;-82
2023/08/21 06:26:25;;;;;;;13.75;12.33;;;;;;;24.67;100.00;100795.02;1434474;90;21474;-82
2023/08/21 06:28:52;;;;;;;16.37;12.13;;;;;;;24.80;100.00;100796.67;1430280;90;21828;-81
2023/08/21 06:31:18;;;;;;;12.60;11.35;;;;;;;24.93;100.00;100791.06;1433526;90;22301;-82
2023/08/21 06:33:51;;;;;;;13.53;11.75;;;;;;;25.02;100.00;100792.36;1454595;90;21620;-83
2023/08/21 06:36:17;;;;;;;18.42;11.30;;;;;;;25.13;100.00;100792.89;1452062;89;21325;-83
2023/08/21 06:38:52;;;;;;;16.25;11.83;;;;;;;25.22;100.00;100797.45;1433193;90;21449;-82
2023/08/21 06:41:18;;;;;;;12.65;10.82;;;;;;;25.32;100.00;100791.44;1427323;90;21664;-84
2023/08/21 06:43:45;;;;;;;17.27;11.57;;;;;;;25.49;100.00;100795.61;1443056;89;22420;-83
2023/08/21 06:46:12;;;;;;;13.53;10.48;;;;;;;25.65;100.00;100792.18;1439191;90;21642;-84
2023/08/21 06:48:43;;;;;;;11.65;10.40;;;;;;;25.78;100.00;100787.86;1450737;89;21540;-83
2023/08/21 06:51:11;;;;;;;11.70;10.53;;;;;;;25.95;100.00;100781.19;1446036;90;21391;-85
2023/08/21 06:53:37;;;;;;;12.75;10.98;;;;;;;26.02;100.00;100777.79;1452567;90;22514;-84
2023/08/21 06:59:27;;;;;;;13.48;10.30;;;;;;;26.28;100.00;100773.67;1443365;90;21560;-85
2023/08/21 07:01:53;;;;;;;11.03;10.10;;;;;;;26.34;100.00;100774.58;1451170;89;21636;-85
2023/08/21 07:04:19;;;;;;;18.92;11.10;;;;;;;26.44;100.00;100780.20;1411827;90;22228;-86
2023/08/21 07:06:46;;;;;;;11.08;9.95;;;;;;;26.52;100.00;100779.81;1431778;90;22502;-86
2023/08/21 07:09:12;;;;;;;11.48;10.10;;;;;;;26.60;100.00;100777.78;1437652;90;21392;-86
2023/08/21 07:11:38;;;;;;;15.25;10.03;;;;;;;26.69;100.00;100783.91;1420133;90;21495;-84
2023/08/21 07:14:04;;;;;;;16.35;10.90;;;;;;;26.74;100.00;100781.83;1431392;90;21642;-84
2023/08/21 07:16:30;;;;;;;18.65;11.55;;;;;;;26.84;100.00;100781.97;1446715;90;21496;-85
2023/08/21 07:18:57;;;;;;;12.10;10.85;;;;;;;26.91;100.00;100781.83;1441657;89;21518;-85
2023/08/21 07:21:23;;;;;;;12.95;10.35;;;;;;;27.03;100.00;100781.20;1446790;90;21355;-85
2023/08/21 07:23:49;;;;;;;13.95;11.08;;;;;;;27.14;100.00;100780.83;1444101;90;21473;-86
2023/08/21 07:26:24;;;;;;;22.10;10.95;;;;;;;27.21;100.00;100774.16;1428172;90;21658;-83
2023/08/21 07:28:52;;;;;;;11.35;10.25;;;;;;;27.35;100.00;100768.38;1441740;90;21474;-85
2023/08/21 07:31:19;;;;;;;12.70;11.40;;;;;;;27.45;100.00;100770.70;1442854;89;21636;-86
2023/08/21 07:33:45;;;;;;;10.58;9.58;;;;;;;27.55;100.00;100769.19;1428398;90;21363;-84
2023/08/21 07:36:16;;;;;;;11.15;9.95;;;;;;;27.60;100.00;100772.80;1449813;89;21695;-85
2023/08/21 07:38:39;;;;;;;12.47;11.33;;;;;;;27.70;100.00;100775.34;1440959;90;21524;-86
2023/08/21 07:41:10;;;;;;;15.58;10.82;;;;;;;27.81;100.00;100777.16;1428934;90;21638;-86
2023/08/21 07:43:42;;;;;;;15.75;10.50;;;;;;;27.97;100.00;100786.33;1421791;91;21556;-86
2023/08/21 07:46:18;;;;;;;15.55;10.48;;;;;;;28.10;100.00;100780.47;1425347;90;21650;-85
2023/08/21 07:48:45;;;;;;;10.63;9.58;;;;;;;28.25;100.00;100781.17;1439911;90;21392;-85
2023/08/21 07:51:12;;;;;;;15.90;11.68;;;;;;;28.30;100.00;100786.13;1421633;90;22486;-84
2023/08/21 07:53:38;;;;;;;14.70;10.75;;;;;;;28.38;100.00;100793.02;1440183;90;21391;-85
2023/08/21 07:56:05;;;;;;;15.53;10.18;;;;;;;28.50;100.00;100791.52;1426272;90;21621;-85
2023/08/21 07:58:33;;;;;;;13.45;10.50;;;;;;;28.57;100.00;100790.79;1445417;90;23216;-86
2023/08/21 08:01:01;;;;;;;12.73;10.45;;;;;;;28.65;100.00;100793.56;1443472;90;21657;-84
2023/08/21 08:03:27;;;;;;;11.05;9.98;;;;;;;28.76;100.00;100796.66;1433055;90;22338;-86
2023/08/21 08:05:53;;;;;;;13.60;10.05;;;;;;;28.87;100.00;100799.74;1443557;90;21429;-83
2023/08/21 08:08:19;;;;;;;14.90;11.35;;;;;;;28.89;100.00;100800.86;1408280;90;21608;-83
2023/08/21 08:10:46;;;;;;;12.90;9.83;;;;;;;29.00;100.00;100792.50;1421629;90;21459;-83
2023/08/21 08:13:12;;;;;;;13.25;10.05;;;;;;;29.16;100.00;100796.17;1422719;90;21672;-83
2023/08/21 08:15:39;;;;;;;13.80;9.58;;;;;;;29.32;100.00;100793.53;1436373;90;22324;-83
2023/08/21 08:18:07;;;;;;;14.25;9.78;;;;;;;29.47;100.00;100795.00;1442531;90;21562;-84
2023/08/21 08:20:33;;;;;;;11.25;9.93;;;;;;;29.62;100.00;100793.73;1437866;90;21628;-85
2023/08/21 08:22:59;;;;;;;11.73;9.88;;;;;;;29.71;100.00;100787.77;1441245;90;21377;-85
2023/08/21 08:25:26;;;;;;;12.65;9.68;;;;;;;29.79;100.00;100790.80;1438951;90;21436;-84
2023/08/21 08:27:52;;;;;;;12.93;9.13;;;;;;;29.85;100.00;100790.28;1438426;90;21391;-85
2023/08/21 08:30:19;;;;;;;13.05;10.25;;;;;;;29.94;100.00;100791.41;1436900;90;22484;-86
2023/08/21 08:32:45;;;;;;;11.73;9.28;;;;;;;30.01;100.00;100791.98;1442579;90;21599;-85
2023/08/21 08:35:14;;;;;;;11.43;10.25;;;;;;;30.06;100.00;100794.70;1439798;90;22121;-86
2023/08/21 08:37:43;;;;;;;17.95;9.30;;;;;;;29.99;100.00;100796.88;1442376;90;22332;-85
2023/08/21 08:40:11;;;;;;;9.78;8.75;;;;;;;30.05;100.00;100791.71;1434998;90;21508;-86
2023/08/21 08:42:39;;;;;;;10.50;9.48;;;;;;;30.16;100.00;100791.75;1442219;90;21466;-83
2023/08/21 08:45:06;;;;;;;17.05;10.20;;;;;;;30.27;100.00;100786.08;1455610;88;22404;-86
2023/08/21 08:47:34;;;;;;;11.38;9.53;;;;;;;30.40;100.00;100787.99;1460825;89;21676;-85
2023/08/21 08:50:06;;;;;;;11.38;9.28;;;;;;;30.52;100.00;100793.45;1460529;89;21607;-86
2023/08/21 08:52:38;;;;;;;12.37;9.33;;;;;;;30.63;100.00;100788.02;1460933;89;21465;-86
2023/08/21 08:55:09;;;;;;;12.20;9.58;;;;;;;30.71;100.00;100788.84;1451527;89;21621;-85
2023/08/21 08:57:35;;;;;;;11.78;8.85;;;;;;;30.79;100.00;100791.06;1455040;89;21422;-85
2023/08/21 09:00:04;;;;;;;10.23;9.30;;;;;;;30.95;100.00;100787.20;1427779;89;21694;-87
2023/08/21 09:02:30;;;;;;;10.70;9.28;;;;;;;31.15;100.00;100789.64;1454973;89;21436;-84
2023/08/21 09:04:57;;;;;;;10.23;9.13;;;;;;;31.13;100.00;100787.72;1453981;89;21621;-86
2023/08/21 09:07:23;;;;;;;10.43;8.83;;;;;;;31.21;99.88;100785.24;1460246;89;21465;-85
2023/08/21 09:09:50;;;;;;;12.70;8.95;;;;;;;31.32;100.00;100784.68;1453889;89;21447;-86
2023/08/21 09:12:17;;;;;;;13.08;8.63;;;;;;;31.35;99.62;100782.78;1452248;89;21657;-85
2023/08/21 09:14:45;;;;;;;9.58;8.58;;;;;;;31.43;99.89;100778.12;1455290;89;21436;-86
2023/08/21 09:17:12;;;;;;;10.85;9.83;;;;;;;31.53;98.52;100771.78;1439811;89;22353;-85
2023/08/21 09:19:39;;;;;;;9.80;8.80;;;;;;;31.61;99.85;100766.29;1467232;89;21593;-85
2023/08/21 09:22:12;;;;;;;13.38;8.90;;;;;;;31.69;98.81;100769.27;1462396;89;21547;-86
2023/08/21 09:24:43;;;;;;;9.45;8.45;;;;;;;31.69;99.71;100769.81;1457184;89;22556;-86
2023/08/21 09:27:16;;;;;;;13.30;9.83;;;;;;;31.66;97.97;100769.02;1454669;89;22309;-86
2023/08/21 09:29:43;;;;;;;10.68;8.75;;;;;;;31.64;97.09;100772.56;1451167;89;21414;-87
2023/08/21 09:32:09;;;;;;;10.50;9.00;;;;;;;31.69;97.72;100768.45;1424608;89;21561;-86
2023/08/21 09:34:37;;;;;;;12.13;8.83;;;;;;;31.71;98.00;100764.89;1454568;89;22272;-87
2023/08/21 09:37:09;;;;;;;13.38;7.90;;;;;;;31.84;98.43;100764.26;1436923;89;21647;-87
2023/08/21 09:39:37;;;;;;;9.38;8.30;;;;;;;31.88;96.42;100761.25;1459100;89;21487;-86
2023/08/21 09:42:10;;;;;;;11.20;8.33;;;;;;;31.87;92.76;100766.43;1460624;89;22409;-86
2023/08/21 09:44:43;;;;;;;9.38;8.48;;;;;;;31.93;94.81;100764.52;1464519;89;21473;-86
2023/08/21 09:47:12;;;;;;;9.50;7.90;;;;;;;31.98;92.53;100769.16;1448924;89;22347;-86
2023/08/21 09:49:40;;;;;;;11.53;9.18;;;;;;;31.93;90.15;100758.23;1451517;89;21791;-85
2023/08/21 09:52:13;;;;;;;13.15;8.18;;;;;;;32.02;92.88;100756.53;1449468;89;21610;-87
2023/08/21 09:54:41;;;;;;;7.97;7.22;;;;;;;32.09;94.02;100758.42;1447433;89;21591;-87
2023/08/21 09:57:08;;;;;;;16.12;8.03;;;;;;;32.16;92.06;100757.53;1460617;89;21707;-85
2023/08/21 09:59:35;;;;;;;9.15;8.30;;;;;;;32.20;91.70;100757.25;1457472;89;21480;-86
2023/08/21 10:02:04;;;;;;;10.53;7.33;;;;;;;32.28;91.90;100749.80;1452915;89;22316;-86
2023/08/21 10:04:34;;;;;;;9.28;8.38;;;;;;;32.38;90.61;100754.94;1448346;89;21480;-86
2023/08/21 10:07:03;;;;;;;13.08;8.85;;;;;;;32.38;88.28;100753.56;1455024;89;21503;-87
2023/08/21 10:09:30;;;;;;;8.68;7.55;;;;;;;32.47;90.98;100751.87;1456211;89;21377;-85
2023/08/21 10:11:58;;;;;;;12.07;8.25;;;;;;;32.58;91.24;100750.69;1456918;89;21480;-86
2023/08/21 10:14:27;;;;;;;8.93;8.03;;;;;;;32.71;90.59;100749.19;1455105;89;21421;-86
2023/08/21 10:16:54;;;;;;;11.55;7.45;;;;;;;32.78;89.51;100751.06;1447660;89;22235;-85
2023/08/21 10:19:20;;;;;;;10.88;7.90;;;;;;;32.70;87.79;100748.38;1461683;89;21408;-85
2023/08/21 10:21:51;;;;;;;11.43;8.00;;;;;;;32.72;87.56;100748.92;1456998;89;21510;-86
2023/08/21 10:24:31;;;;;;;9.55;7.47;;;;;;;32.83;88.07;100747.44;1443816;89;21613;-86
2023/08/21 10:27:00;;;;;;;11.48;7.60;;;;;;;32.84;77.48;100747.16;1457131;89;21421;-85
2023/08/21 10:29:27;;;;;;;8.38;7.45;;;;;;;32.82;76.96;100743.88;1449363;89;21443;-87
2023/08/21 10:32:04;;;;;;;7.53;6.85;;;;;;;32.90;70.35;100740.52;1449499;89;21517;-86
2023/08/21 10:34:37;;;;;;;11.57;8.25;;;;;;;32.77;60.71;100743.40;1450633;89;21466;-85
2023/08/21 10:37:14;;;;;;;9.40;7.10;;;;;;;32.79;51.48;100743.91;1459971;89;21414;-85
2023/08/21 10:39:56;;;;;;;9.83;7.20;;;;;;;32.78;49.82;100748.32;1453215;89;21561;-85
2023/08/21 10:42:42;;;;;;;8.13;7.33;;;;;;;32.77;48.81;100740.66;1454866;89;22338;-84
2023/08/21 10:45:13;;;;;;;8.83;7.17;;;;;;;32.53;43.59;100744.69;1456180;89;21773;-85
2023/08/21 10:47:39;;;;;;;10.23;7.12;;;;;;;32.55;44.14;100744.41;1443622;89;22464;-87
2023/08/21 10:50:10;;;;;;;8.40;7.15;;;;;;;32.55;44.56;100744.41;1435504;89;21384;-89
2023/08/21 10:52:42;;;;;;;8.75;7.35;;;;;;;32.71;44.83;100744.52;1456001;89;21653;-85
2023/08/21 10:55:09;;;;;;;10.70;7.40;;;;;;;32.92;45.57;100741.06;1445992;89;21510;-84
2023/08/21 10:57:37;;;;;;;8.70;7.78;;;;;;;33.13;44.49;100743.61;1450503;89;22375;-85
2023/08/21 11:00:13;;;;;;;10.38;7.55;;;;;;;33.12;44.53;100740.62;1500117;89;21495;-84
2023/08/21 11:02:43;;;;;;;12.60;7.70;;;;;;;33.18;44.69;100738.89;1459113;89;21437;-83
2023/08/21 11:05:14;;;;;;;8.70;7.75;;;;;;;33.17;43.46;100745.46;1454642;89;21643;-84
2023/08/21 11:07:46;;;;;;;8.35;7.10;;;;;;;33.18;44.59;100746.30;1436853;89;22073;-85
2023/08/21 11:10:16;;;;;;;10.90;7.97;;;;;;;33.22;44.67;100744.04;1451167;89;21480;-84
2023/08/21 11:12:57;;;;;;;9.35;7.62;;;;;;;33.37;45.09;100740.86;1453420;89;21391;-84